Time;durP1;ratioP1;P1;durP2;ratioP2;P2;SDS_P1;SDS_P2;PMS_P1;PMS_P2;Temp;Humidity;BMP_temperature;BMP_pressure;BME280_temperature;BME280_humidity;BME280_pressure;Samples;Min_cycle;Max_cycle;Signal;HPM_P1;HPM_P2
2021/05/12 00:01:58;;;;;;;1.50;1.40;;;19.60;57.20;;;;;;5070884;28;20217;-72
2021/05/12 00:04:24;;;;;;;1.70;1.02;;;19.60;58.00;;;;;;5067038;28;20215;-73
2021/05/12 00:06:51;;;;;;;1.60;1.20;;;19.60;57.50;;;;;;5070655;28;20292;-73
2021/05/12 00:09:18;;;;;;;1.70;1.60;;;19.50;57.60;;;;;;5072692;28;20209;-73
2021/05/12 00:11:44;;;;;;;1.60;1.50;;;19.50;57.70;;;;;;5071311;28;20284;-73
2021/05/12 00:14:12;;;;;;;1.60;1.50;;;19.40;58.00;;;;;;5067135;28;20205;-73
2021/05/12 00:16:39;;;;;;;1.45;1.23;;;19.40;58.10;;;;;;5068724;28;20308;-73
2021/05/12 00:19:06;;;;;;;1.40;1.30;;;19.30;58.10;;;;;;5080597;28;20219;-73
2021/05/12 00:21:37;;;;;;;1.63;1.52;;;19.30;58.20;;;;;;5069811;28;20196;-73
2021/05/12 00:24:04;;;;;;;1.52;1.42;;;19.30;58.20;;;;;;5065785;28;20202;-73
2021/05/12 00:26:36;;;;;;;1.20;1.10;;;19.30;58.30;;;;;;5071474;28;20224;-73
2021/05/12 00:29:03;;;;;;;1.40;1.30;;;19.30;58.40;;;;;;5069429;28;20213;-72
2021/05/12 00:31:31;;;;;;;1.58;1.45;;;19.30;58.50;;;;;;5069676;28;20249;-72
2021/05/12 00:34:07;;;;;;;1.42;1.33;;;19.30;58.70;;;;;;5067319;28;20212;-73
2021/05/12 00:36:34;;;;;;;1.35;1.10;;;19.20;58.70;;;;;;5067864;28;20204;-74
2021/05/12 00:39:02;;;;;;;1.45;1.35;;;19.20;58.80;;;;;;5073278;28;20688;-73
2021/05/12 00:41:28;;;;;;;1.40;1.30;;;19.20;58.90;;;;;;5069083;28;20292;-73
2021/05/12 00:43:55;;;;;;;1.90;1.20;;;19.20;59.10;;;;;;5068773;28;20904;-73
2021/05/12 00:46:21;;;;;;;1.98;1.30;;;19.10;59.10;;;;;;5067076;28;20830;-73
2021/05/12 00:48:49;;;;;;;1.38;1.38;;;19.10;59.20;;;;;;5068917;28;20640;-73
2021/05/12 00:51:16;;;;;;;1.10;1.10;;;19.10;59.30;;;;;;5066199;28;20261;-73
2021/05/12 00:53:42;;;;;;;1.42;1.33;;;19.00;59.30;;;;;;5063054;28;20642;-73
2021/05/12 00:56:12;;;;;;;1.58;1.25;;;19.00;59.40;;;;;;5066920;28;20197;-73
2021/05/12 00:58:39;;;;;;;1.40;1.30;;;19.00;59.50;;;;;;5068361;28;20261;-73
2021/05/12 01:01:05;;;;;;;1.00;1.00;;;19.00;59.50;;;;;;5065568;28;20227;-73
2021/05/12 01:03:32;;;;;;;1.30;1.20;;;19.00;59.70;;;;;;5066107;28;20295;-73
2021/05/12 01:06:00;;;;;;;1.17;1.08;;;18.90;59.70;;;;;;5068991;28;20232;-73
2021/05/12 01:08:29;;;;;;;1.63;1.52;;;18.90;59.80;;;;;;5047830;28;20203;-74
2021/05/12 01:10:56;;;;;;;1.30;1.17;;;18.90;59.90;;;;;;5070862;28;20229;-74
2021/05/12 01:13:25;;;;;;;2.08;1.10;;;18.90;60.00;;;;;;5069047;28;20283;-74
2021/05/12 01:15:51;;;;;;;1.70;1.20;;;18.80;60.10;;;;;;5064543;28;20204;-74
2021/05/12 01:18:23;;;;;;;3.00;1.57;;;18.80;60.30;;;;;;5069833;28;20213;-73
2021/05/12 01:20:53;;;;;;;1.30;1.20;;;18.80;60.50;;;;;;5069916;28;20199;-74
2021/05/12 01:23:22;;;;;;;1.27;0.90;;;18.70;60.60;;;;;;5066306;28;20219;-74
2021/05/12 01:25:54;;;;;;;1.33;1.23;;;18.70;60.60;;;;;;5067724;28;20288;-73
2021/05/12 01:28:25;;;;;;;1.50;1.40;;;18.70;60.70;;;;;;5069693;28;20207;-74
2021/05/12 01:30:57;;;;;;;1.30;1.20;;;18.60;60.80;;;;;;5069608;28;20220;-74
2021/05/12 01:33:25;;;;;;;1.43;1.20;;;18.60;60.90;;;;;;5067933;28;20306;-74
2021/05/12 01:35:58;;;;;;;1.15;1.10;;;18.60;61.00;;;;;;5068978;28;20209;-74
2021/05/12 01:38:28;;;;;;;1.03;1.03;;;18.60;61.10;;;;;;5072844;28;20188;-74
2021/05/12 01:40:57;;;;;;;1.73;1.63;;;18.60;61.20;;;;;;5069436;28;20303;-74
2021/05/12 01:43:25;;;;;;;2.17;1.73;;;18.50;61.30;;;;;;5069139;28;20198;-74
2021/05/12 01:45:55;;;;;;;1.83;1.73;;;18.50;61.50;;;;;;5067134;28;20622;-73
2021/05/12 01:48:30;;;;;;;1.60;1.50;;;18.40;61.90;;;;;;5067832;28;20211;-74
2021/05/12 01:51:05;;;;;;;1.48;1.38;;;18.30;62.00;;;;;;5065903;28;20233;-74
2021/05/12 01:53:35;;;;;;;1.57;1.30;;;18.30;62.30;;;;;;5065475;28;20207;-73
2021/05/12 01:56:02;;;;;;;1.38;1.27;;;18.30;62.40;;;;;;5061619;28;20720;-74
2021/05/12 01:58:29;;;;;;;1.50;1.40;;;18.30;62.40;;;;;;5069831;28;20214;-74
2021/05/12 02:00:56;;;;;;;1.50;1.40;;;18.30;63.30;;;;;;5062995;28;20192;-73
2021/05/12 02:03:23;;;;;;;1.30;1.20;;;18.30;62.70;;;;;;5069419;28;20214;-74
2021/05/12 02:05:53;;;;;;;3.20;1.42;;;18.30;62.70;;;;;;5068880;28;20211;-74
2021/05/12 02:08:23;;;;;;;1.60;1.50;;;18.20;62.60;;;;;;5063141;28;20278;-74
2021/05/12 02:10:53;;;;;;;1.42;1.33;;;18.20;62.60;;;;;;5065753;28;20309;-73
2021/05/12 02:13:20;;;;;;;1.35;1.25;;;18.20;62.80;;;;;;5067357;28;20204;-73
2021/05/12 02:15:46;;;;;;;1.60;1.50;;;18.10;62.80;;;;;;5066599;28;20302;-73
2021/05/12 02:18:14;;;;;;;1.20;1.10;;;18.10;62.80;;;;;;5066709;28;20507;-73
2021/05/12 02:20:40;;;;;;;2.87;1.43;;;18.10;62.90;;;;;;5063978;28;20199;-73
2021/05/12 02:23:10;;;;;;;1.60;1.47;;;18.10;63.00;;;;;;5069660;28;20208;-73
2021/05/12 02:25:38;;;;;;;1.70;1.30;;;18.10;63.20;;;;;;5064162;28;20218;-73
2021/05/12 02:28:05;;;;;;;1.40;1.30;;;18.00;64.00;;;;;;5064330;28;20204;-73
2021/05/12 02:30:33;;;;;;;2.37;1.10;;;18.00;63.30;;;;;;5062609;28;20215;-73
2021/05/12 02:32:59;;;;;;;1.30;1.17;;;18.00;63.30;;;;;;5069213;28;20235;-73
2021/05/12 02:35:26;;;;;;;1.43;1.30;;;18.00;63.30;;;;;;5059873;28;20264;-73
2021/05/12 02:37:54;;;;;;;2.10;1.10;;;18.00;63.30;;;;;;5071663;28;20300;-73
2021/05/12 02:40:23;;;;;;;1.50;1.40;;;18.00;63.40;;;;;;5068163;28;20198;-73
2021/05/12 02:42:51;;;;;;;1.30;1.20;;;18.00;63.50;;;;;;5069423;28;20206;-73
2021/05/12 02:45:18;;;;;;;2.00;1.30;;;17.90;63.50;;;;;;5064249;28;20341;-73
2021/05/12 02:47:56;;;;;;;1.40;1.30;;;17.90;63.70;;;;;;5067952;28;20284;-72
2021/05/12 02:50:24;;;;;;;2.37;1.37;;;17.90;63.80;;;;;;5067056;28;20253;-73
2021/05/12 02:52:51;;;;;;;1.30;1.20;;;17.80;63.80;;;;;;5064723;28;20208;-73
2021/05/12 02:55:18;;;;;;;2.03;1.37;;;17.80;64.80;;;;;;5065580;28;20296;-73
2021/05/12 02:57:44;;;;;;;1.80;1.67;;;17.80;64.20;;;;;;5062778;28;20199;-73
2021/05/12 03:00:14;;;;;;;1.70;1.60;;;17.70;64.40;;;;;;5065710;28;20283;-73
2021/05/12 03:02:41;;;;;;;1.43;1.30;;;17.70;64.50;;;;;;5067293;28;20681;-73
2021/05/12 03:05:09;;;;;;;1.90;1.50;;;17.70;65.30;;;;;;5068307;28;20202;-73
2021/05/12 03:07:35;;;;;;;1.40;1.30;;;17.70;64.60;;;;;;5067459;28;20204;-73
2021/05/12 03:10:05;;;;;;;1.60;1.50;;;17.70;64.80;;;;;;5065055;28;20213;-73
2021/05/12 03:12:31;;;;;;;1.97;1.40;;;17.70;64.80;;;;;;5068788;28;20262;-73
2021/05/12 03:14:58;;;;;;;1.80;1.53;;;17.70;64.70;;;;;;5065743;28;20696;-73
2021/05/12 03:17:25;;;;;;;1.73;1.50;;;17.70;64.60;;;;;;5067963;28;20619;-73
2021/05/12 03:19:52;;;;;;;1.20;1.07;;;17.60;64.50;;;;;;5067771;28;20205;-73
2021/05/12 03:22:19;;;;;;;1.47;1.37;;;17.60;64.50;;;;;;5062915;28;20197;-73
2021/05/12 03:24:45;;;;;;;1.30;1.20;;;17.60;64.40;;;;;;5068311;28;20665;-73
2021/05/12 03:27:12;;;;;;;1.57;1.30;;;17.70;64.50;;;;;;5068314;28;20566;-73
2021/05/12 03:29:39;;;;;;;1.47;1.37;;;17.70;64.40;;;;;;5067628;28;20580;-73
2021/05/12 03:32:06;;;;;;;1.47;1.30;;;17.70;64.30;;;;;;5066881;28;20702;-73
2021/05/12 03:34:33;;;;;;;1.40;1.30;;;17.70;64.30;;;;;;5067604;28;20305;-73
2021/05/12 03:37:00;;;;;;;1.40;1.13;;;17.70;64.20;;;;;;5070943;28;20648;-73
2021/05/12 03:39:27;;;;;;;1.50;1.30;;;17.70;64.00;;;;;;5069449;28;20199;-73
2021/05/12 03:41:54;;;;;;;1.77;1.30;;;17.70;64.00;;;;;;5066668;28;20204;-73
2021/05/12 03:44:20;;;;;;;1.50;1.40;;;17.70;64.00;;;;;;5066447;28;20240;-73
2021/05/12 03:46:47;;;;;;;1.50;1.40;;;17.70;64.10;;;;;;5065777;28;20197;-73
2021/05/12 03:49:13;;;;;;;1.60;1.50;;;17.60;64.10;;;;;;5065995;28;20199;-73
2021/05/12 03:51:41;;;;;;;1.43;1.33;;;17.60;64.20;;;;;;5065047;28;20323;-72
2021/05/12 03:54:08;;;;;;;1.23;1.20;;;17.60;64.30;;;;;;5065168;28;20293;-73
2021/05/12 03:56:34;;;;;;;2.27;1.40;;;17.70;64.40;;;;;;5067951;28;20209;-72
2021/05/12 03:59:00;;;;;;;1.40;1.30;;;17.70;64.40;;;;;;5067837;28;20216;-73
2021/05/12 04:01:27;;;;;;;1.40;1.30;;;17.70;64.50;;;;;;5064091;28;20731;-73
2021/05/12 04:03:54;;;;;;;1.97;1.40;;;17.70;64.60;;;;;;5063056;28;20272;-73
2021/05/12 04:06:20;;;;;;;1.67;1.57;;;17.70;64.70;;;;;;5061255;28;20197;-73
2021/05/12 04:08:47;;;;;;;1.50;1.40;;;17.60;64.80;;;;;;5062282;28;20232;-73
2021/05/12 04:11:14;;;;;;;2.33;1.80;;;17.60;64.90;;;;;;5064620;28;20346;-73
2021/05/12 04:13:41;;;;;;;1.90;1.77;;;17.60;65.10;;;;;;5061433;28;20753;-73
2021/05/12 04:16:07;;;;;;;2.43;1.80;;;17.60;65.20;;;;;;5064782;28;20223;-73
2021/05/12 04:18:34;;;;;;;1.67;1.50;;;17.50;65.10;;;;;;5061118;28;20279;-73
2021/05/12 04:21:00;;;;;;;1.60;1.43;;;17.50;65.10;;;;;;5061149;28;20282;-73
2021/05/12 04:23:27;;;;;;;2.10;1.43;;;17.60;65.20;;;;;;5065999;28;20229;-73
2021/05/12 04:25:54;;;;;;;1.37;1.27;;;17.60;65.10;;;;;;5068127;28;20208;-73
2021/05/12 04:28:21;;;;;;;1.90;1.50;;;17.60;65.10;;;;;;5066597;28;20315;-73
2021/05/12 04:30:47;;;;;;;1.70;1.60;;;17.60;65.00;;;;;;5071167;28;20622;-73
2021/05/12 04:33:14;;;;;;;1.60;1.50;;;17.70;65.10;;;;;;5065325;28;20251;-73
2021/05/12 04:35:40;;;;;;;2.23;1.53;;;17.70;65.10;;;;;;5065533;28;20292;-73
2021/05/12 04:38:07;;;;;;;3.03;1.57;;;17.70;65.00;;;;;;5072740;28;20202;-73
2021/05/12 04:40:33;;;;;;;3.23;1.93;;;17.70;64.80;;;;;;5068667;28;20288;-73
2021/05/12 04:43:01;;;;;;;1.83;1.73;;;17.80;64.60;;;;;;5068914;28;20256;-73
2021/05/12 04:45:27;;;;;;;1.90;1.63;;;17.80;64.30;;;;;;5068343;28;20225;-73
2021/05/12 04:47:56;;;;;;;1.73;1.63;;;17.80;64.10;;;;;;5066614;28;20286;-73
2021/05/12 04:50:25;;;;;;;3.03;1.40;;;17.90;63.90;;;;;;5068216;28;20245;-73
2021/05/12 04:52:52;;;;;;;1.80;1.70;;;17.90;63.30;;;;;;5066676;28;20278;-73
2021/05/12 04:55:19;;;;;;;2.17;1.97;;;17.90;62.70;;;;;;5065177;28;20201;-73
2021/05/12 04:57:45;;;;;;;2.70;1.90;;;18.00;62.20;;;;;;5070955;28;20576;-73
2021/05/12 05:00:15;;;;;;;3.40;1.83;;;18.00;61.80;;;;;;5068519;28;20688;-73
2021/05/12 05:02:41;;;;;;;2.33;2.10;;;18.10;61.60;;;;;;5070178;28;20271;-73
2021/05/12 05:05:12;;;;;;;2.20;1.60;;;18.10;61.50;;;;;;5068814;28;20197;-72
2021/05/12 05:07:39;;;;;;;4.40;1.87;;;18.10;59.90;;;;;;5069456;28;20196;-73
2021/05/12 05:10:07;;;;;;;2.60;1.30;;;18.20;59.60;;;;;;5068835;28;20700;-73
2021/05/12 05:12:33;;;;;;;1.80;1.70;;;18.20;59.30;;;;;;5072161;28;20200;-73
2021/05/12 05:15:00;;;;;;;3.67;1.50;;;18.30;59.00;;;;;;5070618;28;20262;-73
2021/05/12 05:17:30;;;;;;;2.10;1.90;;;18.30;58.90;;;;;;5064421;28;20206;-73
2021/05/12 05:19:57;;;;;;;1.60;1.50;;;18.40;58.90;;;;;;5070725;28;20219;-72
2021/05/12 05:22:26;;;;;;;3.87;1.93;;;18.40;58.80;;;;;;5065808;28;20230;-73
2021/05/12 05:24:53;;;;;;;2.97;1.63;;;18.50;58.80;;;;;;5068629;28;20197;-73
2021/05/12 05:27:19;;;;;;;1.60;1.50;;;18.50;58.50;;;;;;5062768;28;20755;-73
2021/05/12 05:29:46;;;;;;;1.50;1.40;;;18.60;58.30;;;;;;5065149;28;20241;-73
2021/05/12 05:32:32;;;;;;;1.70;1.60;;;18.70;58.20;;;;;;5065977;28;20295;-73
2021/05/12 05:35:17;;;;;;;3.40;1.57;;;18.80;58.10;;;;;;5062633;28;20214;-74
2021/05/12 05:38:02;;;;;;;2.27;1.70;;;19.00;57.80;;;;;;5072330;28;20252;-74
2021/05/12 05:40:47;;;;;;;1.77;1.67;;;19.50;57.20;;;;;;5066693;28;20231;-73
2021/05/12 05:43:33;;;;;;;1.60;1.50;;;20.40;55.90;;;;;;5070630;28;20255;-73
2021/05/12 05:46:18;;;;;;;2.08;1.58;;;21.30;54.60;;;;;;5065015;28;20212;-74
2021/05/12 05:49:06;;;;;;;1.25;1.25;;;22.10;53.40;;;;;;5065922;28;20211;-73
2021/05/12 05:51:52;;;;;;;1.50;1.40;;;22.90;52.10;;;;;;5068293;28;20691;-73
2021/05/12 05:54:37;;;;;;;1.70;1.60;;;24.50;50.30;;;;;;5069230;28;20216;-74
2021/05/12 05:57:42;;;;;;;2.15;1.85;;;26.10;47.60;;;;;;5006219;28;20584;-74
2021/05/12 06:00:27;;;;;;;2.08;1.63;;;27.60;44.30;;;;;;5015607;28;20198;-73
2021/05/12 06:02:53;;;;;;;1.83;1.70;;;28.70;42.20;;;;;;5009093;28;20315;-73
2021/05/12 06:05:46;;;;;;;1.73;1.63;;;29.30;40.30;;;;;;5005179;28;20738;-74
2021/05/12 06:08:31;;;;;;;2.13;1.90;;;30.30;39.50;;;;;;5005875;28;20354;-74
2021/05/12 06:11:16;;;;;;;2.95;1.52;;;31.60;38.30;;;;;;5001615;28;20238;-74
2021/05/12 06:14:01;;;;;;;1.90;1.70;;;32.70;36.00;;;;;;4992175;28;20254;-73
2021/05/12 06:16:47;;;;;;;2.15;1.80;;;33.40;34.90;;;;;;4999116;28;20281;-73
2021/05/12 06:19:32;;;;;;;1.77;1.67;;;34.10;34.10;;;;;;5003020;28;20230;-74
2021/05/12 06:22:18;;;;;;;1.95;1.75;;;34.80;32.90;;;;;;5001304;28;20245;-74
2021/05/12 06:25:04;;;;;;;2.92;1.60;;;35.90;31.90;;;;;;5001333;28;20737;-70
2021/05/12 06:28:06;;;;;;;2.05;1.80;;;37.10;30.60;;;;;;4984175;28;20703;-73
2021/05/12 06:30:51;;;;;;;2.35;2.20;;;38.30;29.40;;;;;;5021911;28;20658;-72
2021/05/12 06:33:38;;;;;;;4.00;2.00;;;39.30;28.20;;;;;;5018582;28;20229;-73
2021/05/12 06:36:23;;;;;;;2.92;1.80;;;39.90;27.60;;;;;;5019155;28;20218;-73
2021/05/12 06:39:09;;;;;;;2.15;2.05;;;40.50;27.00;;;;;;5027326;28;20213;-73
2021/05/12 06:41:36;;;;;;;5.95;2.10;;;40.70;26.30;;;;;;5020274;28;20210;-73
2021/05/12 06:44:07;;;;;;;4.75;1.80;;;40.70;26.00;;;;;;5009498;28;20246;-74
2021/05/12 06:46:34;;;;;;;2.78;1.80;;;41.00;26.20;;;;;;5003394;28;20673;-72
2021/05/12 06:49:00;;;;;;;1.75;1.65;;;41.30;25.60;;;;;;5019891;28;20213;-72
2021/05/12 06:51:27;;;;;;;1.80;1.70;;;41.60;25.70;;;;;;5015396;28;20281;-72
2021/05/12 06:53:53;;;;;;;2.33;1.98;;;42.40;25.80;;;;;;5015039;28;20214;-72
2021/05/12 06:56:21;;;;;;;4.78;1.98;;;42.90;25.10;;;;;;5023428;28;20368;-73
2021/05/12 06:58:47;;;;;;;1.80;1.70;;;43.10;24.50;;;;;;5004571;28;20341;-71
2021/05/12 07:01:14;;;;;;;2.00;1.90;;;43.20;24.90;;;;;;5025928;28;20281;-73
2021/05/12 07:03:40;;;;;;;1.85;1.75;;;43.00;23.60;;;;;;5063467;28;20236;-72
2021/05/12 07:06:07;;;;;;;2.08;1.98;;;42.70;23.60;;;;;;5055871;28;20734;-73
2021/05/12 07:08:34;;;;;;;3.63;2.28;;;42.60;23.50;;;;;;5059664;28;20223;-72
2021/05/12 07:11:00;;;;;;;3.45;2.15;;;42.40;23.20;;;;;;5056900;28;20228;-73
2021/05/12 07:13:28;;;;;;;2.30;2.20;;;42.20;23.10;;;;;;5058477;28;20215;-72
2021/05/12 07:15:55;;;;;;;3.00;2.30;;;41.90;23.20;;;;;;5059156;28;20449;-72
2021/05/12 07:18:21;;;;;;;2.35;2.10;;;41.70;23.00;;;;;;5060725;28;20603;-73
2021/05/12 07:20:48;;;;;;;1.90;1.80;;;41.50;23.90;;;;;;5060542;28;20197;-72
2021/05/12 07:23:19;;;;;;;1.70;1.60;;;41.30;23.50;;;;;;5064375;28;20272;-73
2021/05/12 07:25:47;;;;;;;2.10;2.00;;;41.00;23.60;;;;;;5056961;28;20205;-72
2021/05/12 07:28:14;;;;;;;3.40;2.25;;;40.50;23.60;;;;;;5061862;28;20365;-72
2021/05/12 07:30:42;;;;;;;2.20;2.10;;;40.00;23.90;;;;;;5062429;28;20285;-72
2021/05/12 07:33:08;;;;;;;3.33;2.05;;;39.20;24.20;;;;;;5060831;28;20197;-71
2021/05/12 07:35:35;;;;;;;6.28;2.05;;;37.90;24.70;;;;;;5060829;28;20264;-73
2021/05/12 07:38:01;;;;;;;2.20;2.08;;;36.50;25.50;;;;;;5066549;28;20203;-72
2021/05/12 07:40:31;;;;;;;2.95;2.20;;;35.30;26.30;;;;;;5060133;28;20208;-72
2021/05/12 07:42:59;;;;;;;2.67;1.90;;;34.30;26.90;;;;;;5062604;28;20208;-72
2021/05/12 07:45:26;;;;;;;4.15;2.03;;;33.50;27.50;;;;;;5059561;28;20271;-72
2021/05/12 07:47:54;;;;;;;2.33;2.10;;;32.70;27.90;;;;;;5060651;28;20242;-72
2021/05/12 07:50:21;;;;;;;2.50;2.20;;;32.00;28.40;;;;;;5064239;28;20303;-73
2021/05/12 07:52:48;;;;;;;5.35;2.13;;;31.50;28.80;;;;;;5063850;28;20204;-73
2021/05/12 07:55:14;;;;;;;2.10;2.00;;;31.10;29.30;;;;;;5057150;28;20223;-73
2021/05/12 07:57:41;;;;;;;2.13;2.03;;;30.90;29.80;;;;;;5064880;28;20201;-73
2021/05/12 08:00:09;;;;;;;2.25;2.03;;;30.70;29.90;;;;;;5067155;28;20201;-74
2021/05/12 08:02:42;;;;;;;2.30;2.00;;;30.60;30.00;;;;;;5065175;28;20207;-73
2021/05/12 08:05:11;;;;;;;2.10;2.00;;;30.40;30.10;;;;;;5062637;28;20272;-73
2021/05/12 08:07:38;;;;;;;1.92;1.83;;;30.30;30.40;;;;;;5067170;28;20196;-74
2021/05/12 08:10:05;;;;;;;1.70;1.60;;;30.20;30.40;;;;;;5064834;28;20214;-75
2021/05/12 08:12:32;;;;;;;2.30;2.10;;;30.40;30.50;;;;;;5065489;28;20197;-72
2021/05/12 08:14:58;;;;;;;3.50;2.17;;;30.50;30.50;;;;;;5066131;28;20235;-73
2021/05/12 08:17:25;;;;;;;3.35;2.20;;;30.40;30.50;;;;;;5061692;28;20229;-74
2021/05/12 08:19:52;;;;;;;1.95;1.85;;;30.50;30.60;;;;;;5063981;28;20270;-74
2021/05/12 08:22:19;;;;;;;2.35;2.25;;;30.50;30.60;;;;;;5062412;28;20340;-74
2021/05/12 08:24:46;;;;;;;2.13;1.75;;;30.50;30.60;;;;;;5065946;28;20373;-73
2021/05/12 08:27:24;;;;;;;5.20;2.20;;;30.50;30.90;;;;;;5064177;28;20205;-74
2021/05/12 08:29:52;;;;;;;2.40;2.13;;;30.40;30.80;;;;;;5063612;28;20251;-73
2021/05/12 08:32:19;;;;;;;3.70;2.10;;;30.30;31.10;;;;;;5066807;28;20205;-74
2021/05/12 08:34:45;;;;;;;4.28;2.22;;;30.40;31.30;;;;;;5067735;28;20209;-74
2021/05/12 08:37:12;;;;;;;3.83;1.92;;;30.30;31.30;;;;;;5068259;28;20300;-73
2021/05/12 08:39:40;;;;;;;2.17;1.98;;;30.20;31.60;;;;;;5066820;28;20197;-72
2021/05/12 08:42:08;;;;;;;2.30;2.03;;;30.20;31.80;;;;;;5063219;28;20457;-71
2021/05/12 08:44:35;;;;;;;2.20;1.90;;;30.20;32.10;;;;;;5062353;28;20227;-70
2021/05/12 08:47:02;;;;;;;2.00;1.90;;;30.10;32.10;;;;;;5062763;28;20237;-69
2021/05/12 08:49:28;;;;;;;4.38;2.47;;;29.90;32.00;;;;;;5063872;28;20316;-70
2021/05/12 08:51:55;;;;;;;4.65;2.08;;;29.80;31.90;;;;;;5058345;28;20203;-69
2021/05/12 08:54:23;;;;;;;3.55;1.88;;;29.70;32.10;;;;;;5062190;28;20219;-69
2021/05/12 08:56:50;;;;;;;3.45;1.85;;;29.50;32.20;;;;;;5096795;28;20248;-69
2021/05/12 08:59:17;;;;;;;2.00;1.90;;;29.40;32.40;;;;;;5059339;28;20198;-68
2021/05/12 09:01:43;;;;;;;4.15;2.20;;;29.40;32.70;;;;;;5062363;28;20212;-69
2021/05/12 09:04:10;;;;;;;2.53;2.00;;;29.30;32.80;;;;;;5063728;28;20197;-68
2021/05/12 09:06:38;;;;;;;2.10;1.90;;;29.20;33.00;;;;;;5063072;28;20549;-69
2021/05/12 09:09:06;;;;;;;1.73;1.63;;;29.30;33.90;;;;;;5059765;28;20205;-69
2021/05/12 09:11:33;;;;;;;3.05;1.83;;;29.20;33.40;;;;;;5064515;28;20216;-75
2021/05/12 09:14:02;;;;;;;3.58;2.00;;;29.20;33.40;;;;;;5061973;28;20217;-75
2021/05/12 09:16:31;;;;;;;2.00;1.73;;;29.20;33.50;;;;;;5056340;28;20263;-74
2021/05/12 09:19:05;;;;;;;2.95;2.03;;;29.30;33.70;;;;;;5062553;28;20565;-74
2021/05/12 09:21:50;;;;;;;5.63;2.00;;;29.50;33.80;;;;;;5062267;28;20657;-72
2021/05/12 09:24:26;;;;;;;2.40;1.80;;;29.70;33.60;;;;;;5065033;28;20623;-75
2021/05/12 09:26:54;;;;;;;5.95;1.90;;;30.10;33.30;;;;;;5060215;28;20193;-74
2021/05/12 09:29:24;;;;;;;2.03;1.92;;;30.50;32.90;;;;;;5062861;28;20197;-66
2021/05/12 09:31:51;;;;;;;2.95;2.00;;;31.10;32.30;;;;;;5061946;28;20684;-74
2021/05/12 09:34:18;;;;;;;3.58;1.95;;;32.00;31.50;;;;;;5064622;28;20813;-75
2021/05/12 09:36:44;;;;;;;2.75;2.35;;;33.20;30.70;;;;;;5064161;28;20299;-74
2021/05/12 09:39:13;;;;;;;2.20;2.00;;;34.60;29.90;;;;;;5063415;28;20201;-74
2021/05/12 09:41:40;;;;;;;3.25;2.10;;;35.80;29.00;;;;;;5062587;28;20190;-76
2021/05/12 09:44:09;;;;;;;2.15;2.00;;;37.10;28.30;;;;;;5060959;28;20544;-75
2021/05/12 09:46:37;;;;;;;2.65;2.00;;;38.40;27.70;;;;;;5064632;28;20207;-76
2021/05/12 09:49:17;;;;;;;2.05;1.90;;;39.60;26.90;;;;;;5067444;28;20227;-75
2021/05/12 09:51:47;;;;;;;2.15;1.95;;;40.50;26.20;;;;;;5066397;28;20653;-74
2021/05/12 09:54:17;;;;;;;3.10;2.42;;;41.40;25.60;;;;;;5062637;28;20343;-75
2021/05/12 09:56:50;;;;;;;1.85;1.75;;;42.20;25.10;;;;;;5094832;27;20304;-76
2021/05/12 09:59:20;;;;;;;4.10;2.20;;;42.60;24.80;;;;;;5065424;28;20193;-75
2021/05/12 10:01:50;;;;;;;2.60;2.38;;;43.10;24.60;;;;;;5063911;28;20243;-76
2021/05/12 10:04:35;;;;;;;7.07;2.35;;;43.50;23.90;;;;;;5058891;28;20742;-76
2021/05/12 10:07:13;;;;;;;3.80;2.17;;;43.50;23.40;;;;;;5062467;28;20196;-82
2021/05/12 10:09:40;;;;;;;3.90;2.00;;;43.60;23.50;;;;;;5064963;28;20273;-78
2021/05/12 10:12:12;;;;;;;5.07;2.40;;;43.70;23.40;;;;;;5066608;28;20193;-81
2021/05/12 10:14:41;;;;;;;2.40;2.30;;;43.90;23.20;;;;;;5063950;28;20549;-79
2021/05/12 10:17:10;;;;;;;4.10;2.63;;;44.20;23.20;;;;;;5064227;28;20238;-79
2021/05/12 10:19:37;;;;;;;2.42;2.30;;;44.70;23.10;;;;;;5061255;28;20262;-80
2021/05/12 10:22:05;;;;;;;3.20;2.88;;;45.00;22.90;;;;;;5061979;28;20551;-81
2021/05/12 10:24:33;;;;;;;3.03;2.40;;;45.40;22.60;;;;;;5060795;28;20197;-77
2021/05/12 10:27:10;;;;;;;3.17;2.88;;;45.70;22.30;;;;;;5064201;28;20201;-81
2021/05/12 10:29:39;;;;;;;2.92;2.72;;;45.80;22.00;;;;;;5061681;28;20196;-79
2021/05/12 10:32:18;;;;;;;5.28;2.75;;;46.00;22.00;;;;;;5062052;28;20193;-81
2021/05/12 10:34:46;;;;;;;2.83;2.60;;;45.90;21.60;;;;;;5059447;28;20295;-79
2021/05/12 10:37:20;;;;;;;3.08;2.88;;;45.90;21.70;;;;;;5063787;28;20440;-81
2021/05/12 10:39:53;;;;;;;3.30;3.03;;;46.00;21.80;;;;;;5064260;28;20655;-82
2021/05/12 10:42:50;;;;;;;2.85;2.72;;;46.10;21.50;;;;;;5062522;28;20284;-79
2021/05/12 10:45:49;;;;;;;3.10;2.90;;;45.90;21.40;;;;;;5058797;28;20243;-72
2021/05/12 10:48:43;;;;;;;2.55;2.45;;;45.70;21.80;;;;;;5064310;28;20201;-83
2021/05/12 10:51:31;;;;;;;2.75;2.55;;;45.70;21.70;;;;;;5063840;28;20227;-79
2021/05/12 10:54:01;;;;;;;2.63;2.40;;;45.50;21.60;;;;;;5063396;28;20613;-78
2021/05/12 10:56:35;;;;;;;4.25;2.47;;;45.50;21.60;;;;;;5063749;28;20220;-82
2021/05/12 10:59:03;;;;;;;2.80;2.60;;;45.40;21.80;;;;;;5058624;28;20258;-82
2021/05/12 11:01:34;;;;;;;2.53;2.42;;;45.50;21.80;;;;;;5064168;28;20242;-81
2021/05/12 11:04:06;;;;;;;3.05;2.85;;;45.70;21.70;;;;;;5078515;28;20323;-82
2021/05/12 11:06:56;;;;;;;3.58;2.70;;;45.60;21.50;;;;;;5065351;28;20734;-82
2021/05/12 11:09:48;;;;;;;4.60;2.80;;;45.30;21.20;;;;;;5057905;28;20267;-81
2021/05/12 11:12:19;;;;;;;3.38;2.90;;;44.90;21.40;;;;;;5058807;28;20201;-82
2021/05/12 11:15:01;;;;;;;4.07;2.78;;;44.60;21.40;;;;;;5060949;28;20204;-82
2021/05/12 11:17:46;;;;;;;2.90;2.70;;;44.20;21.70;;;;;;5057519;28;20298;-81
2021/05/12 11:20:22;;;;;;;2.70;2.60;;;43.90;21.50;;;;;;5059596;28;20502;-71
2021/05/12 11:22:50;;;;;;;2.63;2.47;;;43.60;21.60;;;;;;5056815;28;20215;-78
2021/05/12 11:25:27;;;;;;;3.58;2.55;;;43.50;21.80;;;;;;5059264;28;20189;-71
2021/05/12 11:31:36;;;;;;;5.50;3.08;;;42.70;21.80;;;;;;5065389;28;20204;-72
2021/05/12 11:34:05;;;;;;;2.58;2.38;;;42.30;22.00;;;;;;5063208;28;20257;-72
2021/05/12 11:36:37;;;;;;;2.60;2.50;;;42.00;22.40;;;;;;5063767;28;20661;-72
2021/05/12 11:39:04;;;;;;;3.17;2.40;;;41.80;22.40;;;;;;5066913;28;20192;-72
2021/05/12 11:41:30;;;;;;;4.85;2.55;;;41.50;22.40;;;;;;5067503;28;20585;-71
2021/05/12 11:44:00;;;;;;;4.75;2.35;;;41.10;22.40;;;;;;5067496;28;20778;-72
2021/05/12 11:46:29;;;;;;;2.72;2.42;;;40.60;22.60;;;;;;5065692;28;20265;-71
2021/05/12 11:48:58;;;;;;;4.28;2.45;;;40.20;22.90;;;;;;5067616;28;20239;-71
2021/05/12 11:51:34;;;;;;;2.40;2.30;;;39.90;23.20;;;;;;5067209;28;20331;-72
2021/05/12 11:54:01;;;;;;;2.90;2.20;;;39.80;23.50;;;;;;5061111;28;20197;-72
2021/05/12 11:56:29;;;;;;;2.30;2.20;;;39.30;23.40;;;;;;5063952;28;20203;-73
2021/05/12 11:58:58;;;;;;;2.20;2.10;;;39.00;23.50;;;;;;5068871;28;20204;-72
2021/05/12 12:01:25;;;;;;;3.08;2.63;;;38.70;23.80;;;;;;5061433;28;20672;-71
2021/05/12 12:04:04;;;;;;;2.45;2.10;;;38.60;23.80;;;;;;5066668;28;20259;-73
2021/05/12 12:06:38;;;;;;;4.68;2.10;;;38.40;24.60;;;;;;5063202;28;20201;-73
2021/05/12 12:09:05;;;;;;;5.78;2.47;;;38.10;24.20;;;;;;5068348;28;20654;-73
2021/05/12 12:11:33;;;;;;;2.50;2.40;;;37.90;24.20;;;;;;5067895;28;20322;-72
2021/05/12 12:14:01;;;;;;;2.88;2.60;;;37.60;24.40;;;;;;5065292;28;20664;-71
2021/05/12 12:16:27;;;;;;;2.60;2.40;;;37.30;24.60;;;;;;5063595;28;20247;-72
2021/05/12 12:18:55;;;;;;;7.72;2.22;;;37.00;24.90;;;;;;5063117;28;20244;-72
2021/05/12 12:21:29;;;;;;;2.53;2.33;;;36.60;25.10;;;;;;5065674;28;20199;-72
2021/05/12 12:24:03;;;;;;;2.28;2.08;;;36.00;25.40;;;;;;5063291;28;20257;-72
2021/05/12 12:26:31;;;;;;;5.50;2.22;;;35.40;25.80;;;;;;5063738;28;20660;-72
2021/05/12 12:29:00;;;;;;;2.45;2.00;;;34.80;26.10;;;;;;5062508;28;20200;-72
2021/05/12 12:31:29;;;;;;;1.90;1.80;;;34.30;26.50;;;;;;5066193;28;20232;-72
2021/05/12 12:34:15;;;;;;;2.30;1.80;;;33.90;26.90;;;;;;5061612;28;20205;-71
2021/05/12 12:37:04;;;;;;;2.05;1.58;;;33.50;27.30;;;;;;5066676;28;20262;-71
2021/05/12 12:39:54;;;;;;;1.80;1.70;;;33.10;27.50;;;;;;5066211;28;20193;-72
2021/05/12 12:42:24;;;;;;;2.35;1.77;;;32.70;27.70;;;;;;5065724;28;20261;-71
2021/05/12 12:44:51;;;;;;;1.92;1.80;;;32.40;28.00;;;;;;5065356;28;20229;-72
2021/05/12 12:47:19;;;;;;;2.75;1.90;;;32.00;28.30;;;;;;5066358;28;20204;-72
2021/05/12 12:49:51;;;;;;;1.70;1.60;;;31.70;28.60;;;;;;5063684;28;20620;-71
2021/05/12 12:52:21;;;;;;;1.83;1.55;;;31.40;28.90;;;;;;5064457;28;20378;-71
2021/05/12 12:54:56;;;;;;;1.58;1.48;;;31.20;29.10;;;;;;5065265;28;20276;-72
2021/05/12 12:57:24;;;;;;;1.55;1.45;;;31.00;29.30;;;;;;5058763;28;20229;-72
2021/05/12 13:00:01;;;;;;;6.70;1.90;;;30.80;29.60;;;;;;5063585;28;20193;-71
2021/05/12 13:02:27;;;;;;;3.67;1.50;;;30.60;29.90;;;;;;5062998;28;20279;-72
2021/05/12 13:05:14;;;;;;;1.70;1.60;;;30.50;30.00;;;;;;5059795;28;20744;-72
2021/05/12 13:07:41;;;;;;;1.40;1.40;;;30.30;30.20;;;;;;5065863;28;20242;-71
2021/05/12 13:10:28;;;;;;;4.05;1.70;;;30.10;30.50;;;;;;5062552;28;20219;-71